Terminal Aerodrome Forecast
Issued by NWS Spokane, WA

Home | Current Version | Previous Version | Text Only | Print | Product List | Glossary On
Versions: 1 2 3 4 5 6 7 8 9 10 11 12 13 14
000
FTUS46 KOTX 261738
TAFLWS
TAF
KLWS 261738Z 2618/2718 33009KT P6SM BKN060 OVC100
     FM261900 28011KT P6SM -RA OVC060
     FM270000 25011G17KT P6SM -SHRA BKN060 OVC080
     FM270400 28013G19KT P6SM VCSH BKN080
     FM270900 27012KT P6SM BKN070=

USA.gov is the U.S. government's official web portal to all federal, state and local government web resources and services.